createdAt,value
2023-10-08T00:02:28.216Z,20.27
2023-10-08T00:04:58.661Z,19.17
2023-10-08T00:07:25.379Z,17.47
2023-10-08T00:09:52.395Z,22.20
2023-10-08T00:12:19.129Z,20.23
2023-10-08T00:14:45.829Z,17.03
2023-10-08T00:17:15.223Z,18.73
2023-10-08T00:19:43.866Z,15.63
2023-10-08T00:22:13.593Z,18.70
2023-10-08T00:24:43.303Z,19.10
2023-10-08T00:27:10.304Z,22.87
2023-10-08T00:29:41.286Z,24.07
2023-10-08T00:32:12.931Z,16.97
2023-10-08T00:34:44.138Z,19.07
2023-10-08T00:37:15.729Z,21.80
2023-10-08T00:39:43.294Z,20.03
2023-10-08T00:42:10.286Z,19.30
2023-10-08T00:44:49.289Z,26.40
2023-10-08T00:47:18.127Z,20.27
2023-10-08T00:49:44.835Z,22.03
2023-10-08T00:52:13.134Z,16.20
2023-10-08T00:54:55.067Z,19.07
2023-10-08T00:57:29.649Z,27.23
2023-10-08T00:59:59.043Z,16.13
2023-10-08T01:02:43.939Z,22.00
2023-10-08T01:05:13.042Z,21.03
2023-10-08T01:07:45.735Z,25.00
2023-10-08T01:10:14.621Z,17.90
2023-10-08T01:12:50.340Z,21.10
2023-10-08T01:15:29.557Z,20.83
2023-10-08T01:18:01.881Z,22.73
2023-10-08T01:20:38.329Z,22.40
2023-10-08T01:23:22.988Z,22.67
2023-10-08T01:25:53.676Z,16.97
2023-10-08T01:28:34.221Z,20.77
2023-10-08T01:31:05.311Z,24.20
2023-10-08T01:33:38.774Z,13.73
2023-10-08T01:36:05.752Z,15.57
2023-10-08T01:38:34.366Z,17.90
2023-10-08T01:41:04.827Z,17.07
2023-10-08T01:43:31.319Z,19.23
2023-10-08T01:45:57.819Z,21.27
2023-10-08T01:48:29.257Z,19.63
2023-10-08T01:50:57.193Z,18.50
2023-10-08T01:53:23.700Z,20.23
2023-10-08T01:55:50.338Z,17.17
2023-10-08T01:58:18.151Z,22.33
2023-10-08T02:00:48.504Z,16.50
2023-10-08T02:03:17.327Z,20.93
2023-10-08T02:05:45.074Z,24.57
2023-10-08T02:08:13.464Z,14.87
2023-10-08T02:10:42.516Z,18.73
2023-10-08T02:13:09.663Z,18.20
2023-10-08T02:15:48.600Z,15.33
2023-10-08T02:18:15.124Z,22.93
2023-10-08T02:20:42.523Z,23.93
2023-10-08T02:23:09.088Z,22.60
2023-10-08T02:25:39.423Z,23.07
2023-10-08T02:28:06.549Z,19.40
2023-10-08T02:30:33.013Z,25.20
2023-10-08T02:32:59.750Z,19.97
2023-10-08T02:35:28.394Z,27.07
2023-10-08T02:37:58.049Z,15.13
2023-10-08T02:40:27.846Z,29.63
2023-10-08T02:43:01.760Z,20.53
2023-10-08T02:45:29.354Z,18.77
2023-10-08T02:47:56.558Z,23.50
2023-10-08T02:50:23.716Z,20.47
2023-10-08T02:52:53.649Z,18.70
2023-10-08T02:55:28.846Z,26.57
2023-10-08T02:57:57.195Z,17.83
2023-10-08T03:00:30.555Z,24.03
2023-10-08T03:02:59.905Z,20.97
2023-10-08T03:05:31.097Z,24.87
2023-10-08T03:07:58.941Z,20.37
2023-10-08T03:10:33.275Z,26.87
2023-10-08T03:13:06.844Z,15.50
2023-10-08T03:15:47.943Z,16.00
2023-10-08T03:18:19.452Z,19.00
2023-10-08T03:20:47.429Z,21.37
2023-10-08T03:23:35.324Z,24.93
2023-10-08T03:26:33.795Z,15.00
2023-10-08T03:29:06.679Z,22.90
2023-10-08T03:31:48.447Z,20.03
2023-10-08T03:34:16.127Z,18.40
2023-10-08T03:36:46.256Z,21.17
2023-10-08T03:39:16.621Z,20.50
2023-10-08T03:41:43.555Z,18.43
2023-10-08T03:44:18.145Z,22.53
2023-10-08T03:46:47.885Z,24.47
2023-10-08T03:49:20.013Z,22.07
2023-10-08T03:51:46.460Z,15.73
2023-10-08T03:54:15.952Z,20.03
2023-10-08T03:56:46.868Z,24.57
2023-10-08T03:59:14.625Z,25.93
2023-10-08T04:01:42.725Z,19.17
2023-10-08T04:04:15.321Z,17.40
2023-10-08T04:06:55.358Z,18.70
2023-10-08T04:09:21.816Z,21.80
2023-10-08T04:11:48.473Z,25.90
2023-10-08T04:14:17.380Z,22.57
2023-10-08T04:16:45.051Z,20.13
2023-10-08T04:19:12.407Z,21.23
2023-10-08T04:21:42.584Z,16.30
2023-10-08T04:24:09.694Z,21.30
2023-10-08T04:26:36.843Z,22.07
2023-10-08T04:29:08.220Z,17.23
2023-10-08T04:31:45.083Z,22.10
2023-10-08T04:34:16.841Z,20.73
2023-10-08T04:36:47.287Z,16.93
2023-10-08T04:39:17.047Z,20.63
2023-10-08T04:41:44.121Z,17.10
2023-10-08T04:44:15.102Z,24.63
2023-10-08T04:46:48.766Z,27.60
2023-10-08T04:49:28.884Z,19.83
2023-10-08T04:51:58.443Z,19.30
2023-10-08T04:54:30.961Z,24.80
2023-10-08T04:57:01.563Z,18.43
2023-10-08T04:59:35.278Z,28.13
2023-10-08T05:02:22.247Z,16.27
2023-10-08T05:04:54.033Z,18.93
2023-10-08T05:07:41.566Z,16.60
2023-10-08T05:10:08.824Z,18.93
2023-10-08T05:12:46.876Z,21.87
2023-10-08T05:15:15.920Z,20.77
2023-10-08T05:17:52.450Z,23.03
2023-10-08T05:20:31.290Z,20.57
2023-10-08T05:23:07.156Z,17.13
2023-10-08T05:25:41.768Z,24.33
2023-10-08T05:28:12.391Z,17.90
2023-10-08T05:30:39.801Z,29.80
2023-10-08T05:33:09.955Z,24.03
2023-10-08T05:35:43.354Z,18.93
2023-10-08T05:38:32.779Z,21.10
2023-10-08T05:41:00.051Z,21.53
2023-10-08T05:43:40.308Z,27.40
2023-10-08T05:46:25.707Z,24.87
2023-10-08T05:49:16.882Z,20.83
2023-10-08T05:51:50.251Z,21.97
2023-10-08T05:54:28.342Z,18.87
2023-10-08T05:57:10.953Z,16.93
2023-10-08T05:59:54.469Z,20.53
2023-10-08T06:02:50.916Z,14.13
2023-10-08T06:05:28.732Z,17.50
2023-10-08T06:07:55.817Z,17.67
2023-10-08T06:10:33.626Z,13.97
2023-10-08T06:13:07.285Z,12.50
2023-10-08T06:15:49.685Z,17.57
2023-10-08T06:18:19.232Z,17.73
2023-10-08T06:20:50.406Z,16.47
2023-10-08T06:23:24.098Z,17.00
2023-10-08T06:25:59.820Z,14.77
2023-10-08T06:28:27.339Z,15.93
2023-10-08T06:30:56.775Z,12.37
2023-10-08T06:33:34.779Z,17.47
2023-10-08T06:36:14.102Z,8.03
2023-10-08T06:38:42.431Z,11.57
2023-10-08T06:41:14.523Z,17.17
2023-10-08T06:44:03.448Z,15.00
2023-10-08T06:46:34.420Z,18.83
2023-10-08T06:49:04.788Z,11.27
2023-10-08T06:51:33.962Z,18.30
2023-10-08T06:54:03.517Z,12.47
2023-10-08T06:56:32.426Z,18.57
2023-10-08T06:59:00.441Z,17.07
2023-10-08T07:01:27.161Z,14.63
2023-10-08T07:03:57.599Z,13.43
2023-10-08T07:06:27.078Z,16.43
2023-10-08T07:08:56.901Z,13.13
2023-10-08T07:11:23.726Z,12.27
2023-10-08T07:13:52.156Z,17.67
2023-10-08T07:16:20.096Z,10.47
2023-10-08T07:18:52.918Z,9.83
2023-10-08T07:21:25.029Z,13.00
2023-10-08T07:23:57.789Z,11.90
2023-10-08T07:26:37.631Z,18.43
2023-10-08T07:29:12.814Z,14.27
2023-10-08T07:31:43.727Z,11.77
2023-10-08T07:34:25.139Z,10.73
2023-10-08T07:36:55.230Z,20.03
2023-10-08T07:39:32.128Z,11.07
2023-10-08T07:42:00.192Z,10.23
2023-10-08T07:44:32.797Z,12.50
2023-10-08T07:47:00.779Z,10.17
2023-10-08T07:49:31.031Z,12.07
2023-10-08T07:51:59.747Z,17.17
2023-10-08T07:54:30.854Z,18.93
2023-10-08T07:57:07.941Z,22.83
2023-10-08T07:59:34.474Z,13.90
2023-10-08T08:02:01.352Z,10.93
2023-10-08T08:04:34.210Z,16.67
2023-10-08T08:07:02.603Z,14.70
2023-10-08T08:09:30.021Z,15.27
2023-10-08T08:11:58.506Z,14.13
2023-10-08T08:14:25.848Z,13.60
2023-10-08T08:16:52.457Z,15.33
2023-10-08T08:19:25.302Z,12.17
2023-10-08T08:21:53.627Z,18.37
2023-10-08T08:24:36.054Z,12.27
2023-10-08T08:27:09.463Z,10.93
2023-10-08T08:29:45.781Z,12.33
2023-10-08T08:32:22.816Z,12.50
2023-10-08T08:34:51.740Z,19.93
2023-10-08T08:37:18.527Z,16.60
2023-10-08T08:39:45.168Z,16.27
2023-10-08T08:42:11.611Z,15.60
2023-10-08T08:44:46.326Z,11.50
2023-10-08T08:47:19.268Z,14.70
2023-10-08T08:49:46.394Z,15.80
2023-10-08T08:52:16.562Z,18.03
2023-10-08T08:54:43.396Z,12.30
2023-10-08T08:57:15.093Z,15.50
2023-10-08T08:59:59.189Z,12.30
2023-10-08T09:02:25.849Z,12.63
2023-10-08T09:04:54.814Z,19.03
2023-10-08T09:07:25.318Z,16.00
2023-10-08T09:09:58.205Z,17.13
2023-10-08T09:12:24.732Z,8.97
2023-10-08T09:14:51.186Z,18.37
2023-10-08T09:17:18.518Z,11.53
2023-10-08T09:19:46.736Z,12.43
2023-10-08T09:22:13.586Z,21.80
2023-10-08T09:24:41.753Z,20.60
2023-10-08T09:27:09.913Z,15.57
2023-10-08T09:29:41.240Z,15.10
2023-10-08T09:32:14.825Z,12.57
2023-10-08T09:34:41.891Z,16.10
2023-10-08T09:37:11.070Z,13.67
2023-10-08T09:39:38.284Z,19.80
2023-10-08T09:42:08.423Z,23.90
2023-10-08T09:44:35.533Z,12.97
2023-10-08T09:47:06.120Z,14.70
2023-10-08T09:49:37.397Z,16.23
2023-10-08T09:52:07.461Z,17.07
2023-10-08T09:54:52.557Z,13.70
2023-10-08T09:57:20.086Z,19.73
2023-10-08T09:59:50.159Z,12.37
2023-10-08T10:02:18.787Z,15.30
2023-10-08T10:04:45.961Z,9.87
2023-10-08T10:07:15.309Z,18.60
2023-10-08T10:09:48.819Z,18.73
2023-10-08T10:12:20.296Z,17.00
2023-10-08T10:14:48.112Z,8.30
2023-10-08T10:17:42.590Z,14.20
2023-10-08T10:20:15.900Z,16.93
2023-10-08T10:22:45.430Z,14.80
2023-10-08T10:25:18.859Z,16.33
2023-10-08T10:27:52.486Z,10.37
2023-10-08T10:30:23.599Z,12.73
2023-10-08T10:32:54.236Z,11.50
2023-10-08T10:35:21.169Z,17.33
2023-10-08T10:37:54.344Z,13.13
2023-10-08T10:40:30.662Z,9.80
2023-10-08T10:42:58.209Z,8.47
2023-10-08T10:45:40.720Z,8.10
2023-10-08T10:48:22.926Z,13.47
2023-10-08T10:51:06.307Z,9.87
2023-10-08T10:53:34.723Z,9.73
2023-10-08T10:56:10.677Z,11.57
2023-10-08T10:58:40.686Z,11.00
2023-10-08T11:01:24.814Z,8.60
2023-10-08T11:03:58.454Z,14.03
2023-10-08T11:06:26.406Z,9.20
2023-10-08T11:08:54.143Z,14.67
2023-10-08T11:11:30.727Z,11.57
2023-10-08T11:14:01.521Z,9.00
2023-10-08T11:16:32.742Z,8.30
2023-10-08T11:19:02.692Z,12.00
2023-10-08T11:21:35.064Z,11.87
2023-10-08T11:24:09.807Z,13.33
2023-10-08T11:26:40.623Z,10.77
2023-10-08T11:29:15.291Z,9.33
2023-10-08T11:31:42.831Z,12.17
2023-10-08T11:34:14.829Z,11.33
2023-10-08T11:36:54.160Z,14.83
2023-10-08T11:39:24.234Z,10.37
2023-10-08T11:42:05.725Z,10.57
2023-10-08T11:44:37.362Z,9.70
2023-10-08T11:47:13.024Z,14.57
2023-10-08T11:49:48.296Z,9.37
2023-10-08T11:52:16.869Z,9.80
2023-10-08T11:54:44.774Z,8.87
2023-10-08T11:57:12.665Z,10.03
2023-10-08T11:59:40.778Z,10.27
2023-10-08T12:02:07.990Z,12.77
2023-10-08T12:04:34.654Z,13.37
2023-10-08T12:07:08.211Z,11.33
2023-10-08T12:09:38.813Z,12.10
2023-10-08T12:12:10.484Z,12.63
2023-10-08T12:14:38.837Z,8.50
2023-10-08T12:17:12.469Z,15.37
2023-10-08T12:19:41.460Z,12.83
2023-10-08T12:22:09.782Z,7.60
2023-10-08T12:24:36.805Z,9.43
2023-10-08T12:27:04.418Z,10.17
2023-10-08T12:29:34.018Z,5.63
2023-10-08T12:32:01.149Z,11.73
2023-10-08T12:34:30.910Z,10.43
2023-10-08T12:36:57.582Z,10.70
2023-10-08T12:39:29.265Z,10.13
2023-10-08T12:41:58.515Z,8.57
2023-10-08T12:44:25.142Z,9.17
2023-10-08T12:46:52.541Z,6.43
2023-10-08T12:49:22.356Z,7.40
2023-10-08T12:51:49.015Z,9.10
2023-10-08T12:54:22.837Z,12.67
2023-10-08T12:56:50.220Z,8.93
2023-10-08T12:59:23.260Z,15.40
2023-10-08T13:01:55.451Z,6.43
2023-10-08T13:04:29.131Z,14.83
2023-10-08T13:07:03.684Z,10.23
2023-10-08T13:09:32.605Z,10.50
2023-10-08T13:12:02.512Z,14.17
2023-10-08T13:14:29.120Z,10.27
2023-10-08T13:16:55.884Z,14.47
2023-10-08T13:19:24.915Z,15.63
2023-10-08T13:21:54.663Z,7.73
2023-10-08T13:24:24.460Z,19.00
2023-10-08T13:26:52.058Z,12.83
2023-10-08T13:29:19.565Z,12.40
2023-10-08T13:31:47.590Z,16.10
2023-10-08T13:34:17.254Z,18.10
2023-10-08T13:36:48.392Z,11.03
2023-10-08T13:39:19.808Z,15.00
2023-10-08T13:41:49.800Z,15.00
2023-10-08T13:44:16.551Z,18.70
2023-10-08T13:46:50.536Z,18.53
2023-10-08T13:49:18.120Z,21.63
2023-10-08T13:51:45.659Z,13.27
2023-10-08T13:54:12.616Z,13.17
2023-10-08T13:56:39.431Z,13.83
2023-10-08T13:59:15.404Z,12.13
2023-10-08T14:01:52.865Z,11.27
2023-10-08T14:04:28.494Z,12.63
2023-10-08T14:06:56.343Z,9.87
2023-10-08T14:09:32.721Z,18.37
2023-10-08T14:12:00.836Z,20.17
2023-10-08T14:14:32.100Z,19.10
2023-10-08T14:17:08.950Z,10.57
2023-10-08T14:19:48.338Z,10.03
2023-10-08T14:22:15.999Z,17.67
2023-10-08T14:24:43.096Z,11.10
2023-10-08T14:27:12.286Z,12.43
2023-10-08T14:29:41.835Z,18.90
2023-10-08T14:32:11.605Z,18.13
2023-10-08T14:34:48.190Z,13.37
2023-10-08T14:37:34.354Z,10.00
2023-10-08T14:40:19.282Z,18.73
2023-10-08T14:42:57.734Z,15.97
2023-10-08T14:45:27.315Z,16.17
2023-10-08T14:47:56.018Z,18.03
2023-10-08T14:50:24.239Z,13.70
2023-10-08T14:52:51.264Z,13.63
2023-10-08T14:55:17.833Z,18.40
2023-10-08T14:57:44.540Z,12.10
2023-10-08T15:00:11.974Z,12.77
2023-10-08T15:02:39.355Z,18.53
2023-10-08T15:05:07.160Z,18.07
2023-10-08T15:07:35.050Z,18.93
2023-10-08T15:10:01.752Z,15.03
2023-10-08T15:12:29.106Z,18.07
2023-10-08T15:14:55.564Z,9.70
2023-10-08T15:17:22.632Z,13.70
2023-10-08T15:19:49.168Z,16.50
2023-10-08T15:22:15.823Z,8.70
2023-10-08T15:24:44.468Z,14.33
2023-10-08T15:27:11.662Z,16.80
2023-10-08T15:29:38.771Z,14.00
2023-10-08T15:32:05.984Z,11.17
2023-10-08T15:34:38.838Z,15.27
2023-10-08T15:37:07.933Z,14.93
2023-10-08T15:39:34.479Z,13.27
2023-10-08T15:42:02.958Z,10.00
2023-10-08T15:44:29.574Z,14.17
2023-10-08T15:46:56.690Z,12.10
2023-10-08T15:49:23.313Z,9.83
2023-10-08T15:51:49.948Z,13.40
2023-10-08T15:54:22.035Z,12.27
2023-10-08T15:56:48.834Z,11.37
2023-10-08T15:59:15.442Z,9.07
2023-10-08T16:01:44.528Z,16.23
2023-10-08T16:04:11.253Z,20.47
2023-10-08T16:06:37.940Z,18.23
2023-10-08T16:09:06.438Z,15.53
2023-10-08T16:11:33.008Z,17.40
2023-10-08T16:13:59.408Z,15.90
2023-10-08T16:16:25.939Z,15.43
2023-10-08T16:18:52.791Z,17.50
2023-10-08T16:21:22.420Z,18.80
2023-10-08T16:23:48.929Z,17.03
2023-10-08T16:26:16.319Z,13.40
2023-10-08T16:28:42.935Z,15.93
2023-10-08T16:31:09.426Z,22.50
2023-10-08T16:33:35.994Z,16.67
2023-10-08T16:36:08.324Z,16.20
2023-10-08T16:38:35.471Z,12.87
2023-10-08T16:41:04.560Z,14.63
2023-10-08T16:43:31.087Z,22.77
2023-10-08T16:45:57.742Z,15.57
2023-10-08T16:48:24.343Z,14.70
2023-10-08T16:50:52.240Z,15.33
2023-10-08T16:53:18.814Z,12.47
2023-10-08T16:55:46.872Z,13.60
2023-10-08T16:58:13.557Z,14.17
2023-10-08T17:00:39.983Z,15.30
2023-10-08T17:03:07.417Z,19.13
2023-10-08T17:05:34.459Z,14.60
2023-10-08T17:08:01.047Z,16.43
2023-10-08T17:10:31.080Z,10.80
2023-10-08T17:12:58.863Z,12.33
2023-10-08T17:15:26.354Z,10.97
2023-10-08T17:17:53.097Z,12.43
2023-10-08T17:20:19.797Z,9.90
2023-10-08T17:22:47.006Z,14.27
2023-10-08T17:25:14.130Z,16.90
2023-10-08T17:27:46.399Z,14.50
2023-10-08T17:30:20.422Z,10.93
2023-10-08T17:32:49.404Z,10.70
2023-10-08T17:35:17.647Z,11.47
2023-10-08T17:37:45.622Z,12.83
2023-10-08T17:40:12.753Z,12.20
2023-10-08T17:42:40.498Z,15.93
2023-10-08T17:45:07.957Z,13.63
2023-10-08T17:47:34.594Z,13.70
2023-10-08T17:50:01.253Z,11.90
2023-10-08T17:52:27.674Z,16.97
2023-10-08T17:54:55.258Z,7.60
2023-10-08T17:57:21.887Z,17.43
2023-10-08T17:59:49.818Z,10.43
2023-10-08T18:02:17.930Z,12.90
2023-10-08T18:04:45.151Z,13.50
2023-10-08T18:07:11.770Z,10.93
2023-10-08T18:09:38.306Z,12.07
2023-10-08T18:12:05.284Z,12.60
2023-10-08T18:14:31.784Z,9.93
2023-10-08T18:16:58.316Z,12.70
2023-10-08T18:19:25.028Z,12.23
2023-10-08T18:21:51.768Z,14.40
2023-10-08T18:24:18.989Z,11.83
2023-10-08T18:26:49.178Z,18.27
2023-10-08T18:29:17.308Z,9.77
2023-10-08T18:31:45.134Z,10.50
2023-10-08T18:34:14.627Z,12.10
2023-10-08T18:36:41.488Z,12.27
2023-10-08T18:39:14.545Z,11.10
2023-10-08T18:41:43.747Z,14.87
2023-10-08T18:44:11.074Z,11.83
2023-10-08T18:46:40.410Z,9.53
2023-10-08T18:49:11.679Z,10.63
2023-10-08T18:51:43.463Z,13.27
2023-10-08T18:54:10.778Z,14.50
2023-10-08T18:56:37.380Z,17.87
2023-10-08T18:59:05.075Z,26.43
2023-10-08T19:01:32.447Z,21.07
2023-10-08T19:03:59.197Z,13.10
2023-10-08T19:06:25.785Z,10.03
2023-10-08T19:08:53.155Z,14.43
2023-10-08T19:11:19.778Z,13.00
2023-10-08T19:13:46.603Z,11.13
2023-10-08T19:16:16.725Z,14.07
2023-10-08T19:18:46.284Z,13.90
2023-10-08T19:21:19.215Z,23.57
2023-10-08T19:23:47.019Z,10.37
2023-10-08T19:26:18.094Z,13.17
2023-10-08T19:28:46.447Z,13.53
2023-10-08T19:31:13.733Z,25.93
2023-10-08T19:33:40.877Z,13.50
2023-10-08T19:36:09.585Z,15.13
2023-10-08T19:38:36.363Z,14.77
2023-10-08T19:41:03.199Z,18.70
2023-10-08T19:43:30.234Z,14.23
2023-10-08T19:45:58.299Z,13.00
2023-10-08T19:48:25.382Z,20.03
2023-10-08T19:50:54.824Z,13.33
2023-10-08T19:53:21.768Z,14.73
2023-10-08T19:55:53.103Z,16.67
2023-10-08T19:58:21.027Z,16.07
2023-10-08T20:00:51.263Z,28.73
2023-10-08T20:03:21.154Z,18.63
2023-10-08T20:05:50.963Z,13.60
2023-10-08T20:08:17.491Z,20.77
2023-10-08T20:10:45.080Z,22.67
2023-10-08T20:13:12.657Z,31.37
2023-10-08T20:15:39.702Z,17.50
2023-10-08T20:18:11.826Z,15.67
2023-10-08T20:20:39.544Z,26.57
2023-10-08T20:23:07.216Z,20.77
2023-10-08T20:25:37.800Z,16.20
2023-10-08T20:28:14.854Z,21.03
2023-10-08T20:30:46.399Z,27.83
2023-10-08T20:33:13.346Z,17.50
2023-10-08T20:35:40.909Z,17.57
2023-10-08T20:38:07.789Z,17.90
2023-10-08T20:40:35.247Z,21.63
2023-10-08T20:43:02.321Z,17.00
2023-10-08T20:45:29.578Z,20.87
2023-10-08T20:47:58.592Z,19.73
2023-10-08T20:52:58.089Z,16.53
2023-10-08T20:55:26.537Z,17.50
2023-10-08T20:57:55.045Z,15.77
2023-10-08T21:00:26.312Z,20.67
2023-10-08T21:02:52.867Z,21.63
2023-10-08T21:05:20.098Z,17.43
2023-10-08T21:07:48.435Z,20.50
2023-10-08T21:10:20.049Z,18.30
2023-10-08T21:12:51.556Z,17.90
2023-10-08T21:15:21.186Z,25.30
2023-10-08T21:17:52.090Z,22.90
2023-10-08T21:20:23.512Z,26.93
2023-10-08T21:22:51.286Z,19.47
2023-10-08T21:25:22.152Z,18.43
2023-10-08T21:27:53.057Z,18.73
2023-10-08T21:30:20.199Z,15.70
2023-10-08T21:32:51.432Z,24.70
2023-10-08T21:35:19.252Z,26.27
2023-10-08T21:37:48.134Z,20.00
2023-10-08T21:40:16.891Z,22.60
2023-10-08T21:42:44.956Z,18.87
2023-10-08T21:45:13.271Z,20.00
2023-10-08T21:47:43.145Z,16.27
2023-10-08T21:50:13.299Z,23.10
2023-10-08T21:52:40.968Z,23.83
2023-10-08T21:55:09.092Z,29.77
2023-10-08T21:57:38.386Z,26.83
2023-10-08T22:00:32.682Z,25.57
2023-10-08T22:03:01.229Z,21.80
2023-10-08T22:05:32.840Z,20.70
2023-10-08T22:08:00.456Z,22.97
2023-10-08T22:10:29.122Z,21.03
2023-10-08T22:12:59.648Z,29.17
2023-10-08T22:15:28.196Z,23.23
2023-10-08T22:18:03.373Z,25.77
2023-10-08T22:20:35.645Z,21.30
2023-10-08T22:23:06.364Z,27.63
2023-10-08T22:25:40.057Z,22.73
2023-10-08T22:28:12.989Z,26.90
2023-10-08T22:30:43.422Z,29.20
2023-10-08T22:33:12.261Z,26.20
2023-10-08T22:35:44.226Z,26.03
2023-10-08T22:38:18.192Z,26.13
2023-10-08T22:41:11.958Z,38.87
2023-10-08T22:43:41.257Z,27.23
2023-10-08T22:46:11.434Z,33.67
2023-10-08T22:48:45.968Z,38.00
2023-10-08T22:51:24.185Z,36.83
2023-10-08T22:53:51.439Z,40.17
2023-10-08T22:56:18.615Z,35.47
2023-10-08T22:58:45.359Z,36.33
2023-10-08T23:01:19.592Z,32.73
2023-10-08T23:03:48.114Z,29.70
2023-10-08T23:06:16.129Z,31.20
2023-10-08T23:08:43.988Z,32.23
2023-10-08T23:11:14.109Z,30.30
2023-10-08T23:13:40.601Z,29.73
2023-10-08T23:16:07.910Z,40.23
2023-10-08T23:18:36.749Z,33.23
2023-10-08T23:21:07.726Z,31.27
2023-10-08T23:23:38.920Z,27.93
2023-10-08T23:26:14.448Z,32.20
2023-10-08T23:28:42.150Z,34.63
2023-10-08T23:31:11.977Z,29.67
2023-10-08T23:33:48.147Z,32.37
2023-10-08T23:36:15.124Z,29.57
2023-10-08T23:38:47.429Z,34.37
2023-10-08T23:41:18.011Z,29.30
2023-10-08T23:43:55.071Z,33.50
2023-10-08T23:46:33.426Z,37.40
2023-10-08T23:49:28.333Z,33.10
2023-10-08T23:51:58.217Z,30.70
2023-10-08T23:54:34.859Z,32.77
2023-10-08T23:57:07.567Z,30.87
2023-10-08T23:59:43.508Z,25.50
